[source: ADDS]
METAR
EDVE 041120Z 23012G22KT 9999 FEW037 21/12 Q1014

TAF EDVE 041100Z 0412/0421 23012KT 9999 BKN035 TEMPO 0412/0415 23015G25KT EDDV 041120Z 23011KT 180V260 9999 BKN039 21/12 Q1013 TEMPO 23015G25KT

TAF EDDV 041100Z 0412/0512 23012KT 9999 BKN025 TEMPO 0412/0415 23015G25KT TEMPO 0421/0508 4500 -DZRA BKN011 BECMG 0507/0509 22015G25KT TEMPO 0510/0512 23020G35KT ETHS 041020Z 24014KT 9999 BKN025 18/12 Q1013 BLU

ETHC 041020Z 21010KT 9999 FEW030 BKN036 19/12 Q1013 BLU

EDVK 041120Z 21015G27KT 9999 FEW046 21/10 Q1015

TAF EDVK 041100Z 0412/0421 22012KT 9999 FEW045 TEMPO 0412/0417 23015G25KT
TAF
TAF EDVE 041100Z 0412/0421 23012KT 9999 BKN035 TEMPO 0412/0415 23015G25KT

TAF EDDV 041100Z 0412/0512 23012KT 9999 BKN025 TEMPO 0412/0415 23015G25KT TEMPO 0421/0508 4500 -DZRA BKN011 BECMG 0507/0509 22015G25KT TEMPO 0510/0512 23020G35KT

TAF EDVK 041100Z 0412/0421 22012KT 9999 FEW045 TEMPO 0412/0417 23015G25KT

SR / SS: 03:03 / 19:41 UTC (EDVE 2020-07-04)
Oliver hat seinen ersten Alleinflug absolviert! Herzlichen Glückwunsch und weiterhin Happy Landings! +++ Wir begrüßen Gianluca in den Reihen der FFG! Viel Erfolg bei der Ausbildung! +++ Schon wieder zwei neue Mitglieder, herzlich Willkommen Andreas und Thomas! +++ Willkommen in der FFG Fabian! +++ Jens hat die praktische Prüfung bestanden! Herzlichen Glückwunsch und allzeit guten Flug! +++ Wir begrüßen Christopher als neues Mitglied der FFG! Always Happy Landings! +++ Flugbetrieb und Ausbildungsbetrieb unter Auflagen wieder möglich. +++ Gero steht ebenfalls als Fluglehrer zur Verfügung! Vielen Dank an Gero und viel Erfolg beim Ausbilden. +++ Ilya hat die Theorieprüfung bestanden! Herzlichen Glückwunsch und weiterhin viel Erfolg für die restliche Ausbildung! +++ Hallo Felix, herzlich Willkommen bei der FFG und viel Erfolg für deine Pilotenausbildung! +++ Jens verstärkt als neuer Fluglehrer ab sofort unser FFG-Fluglehrer-Team. Glückwunsch und viel Erfolg beim Ausbilden! +++

wenig -> mittel -> viel

 

Wetter 

Metar/TAF
GAFOR

Significant Weather Chart
Windkarte
Gewitteranimation
Radar Deutschland 3h
OGIMET

Planung 

NOTAMs
BirdTams
Flugplanaufgabe DFS
Flugplanung
Flugplan Hilfe 
Mil.AIP Deutschland
Flugzeug reserviert

FlightLog 

ICAO Karte, gültig?
Flugdurchführungsplan
AIP-Ausdrucke
Betriebzeiten Flugplätze
90 Tage Regel
bei Nacht: 1 S/L bei Nacht

Dokumente 

ZÜP & Medical gültig
Funksprechzeugnis
Sprachtest
Flugbuch, Lizenzen gültig
Nachweis Erste Hilfe
Ausweis mit Lichtbild

Ausbildung 

Flugauftrag
Ausbildungsnachweis
Nachweis Theorieprüfung
Barograph

Papiere 

Flughandbuch
Bordbuch
Checklisten (3 Stück)
Wägebericht
Versicherungsschein
Tankkarte
Flughafenausweis & Schlüssel

Vorm Flug

Vorflugcheck
Tanken

Sonstiges 

Chocks
Verzurrseile
Ersatzbatterien
Sonnenbrille
Ersatzbrille
Sitzkissen
Motoröl für Langstrecke
Schwimmwesten

Postflight

Maschine säubern & sichern
private Dinge ausräumen
Halle schließen
Bordbuch ausfüllen
eigenes Flugbuch ausfüllen
Abrechnung vornehmen
Landegebühren
Flugplan schliessen
     069-78072500

Letztes NOTAM EDVE
von 03.07.2020 0710Z bis 01.10.2020 2359Z
SID CHG, DUE TO OUTAGE OF DLE DVOR/DME: GPS/FMS RNAV OVERLAY REMAIN UNCHANGED. AMEND DLE DVOR/DME TO READ DLE INT. PSN REMAINS UNCHANG [more]

Letztes NOTAM EDCB
von 04.07.2020 1145Z bis 04.07.2020 1315Z
ASPH RWY 09/27 CLSD.

Letztes NOTAM EDBC
von 21.07.2020 0800Z bis 22.07.2020 1200Z
21 0800-1300, 22 0700-1200
VOR/DME MAG/MAGDEBURG 110.45 MHZ/CH41Y ON TEST. DO NOT USE FALSE INDICATIONS POSS.

Letztes NOTAM EDVM
von 25.06.2019 0700Z bis PERM
SAFETYZONE FOR PJE ESTABLISHED ON APRON 1, TWY D BTN TWY G AND B AND TWY B SOUTH TWY D. DURING PJE ACT START UP OF ENGINES NOT PERMITTED. ACTUAL [more]

Letztes NOTAM EDOV
von 04.07.2020 0600Z bis 05.07.2020 1938Z
DAILY 0600-SS
PJE 2NM RADIUS CENTERED ON PSN 523744N 0114912E, STENDAL-BORSTEL.
GND- FL120

Letztes NOTAM EDDV
von 03.07.2020 1414Z bis 03.10.2020 2000Z
COVID-19: INFORMATION GENERAL AVIATION TERMINAL REFUELING SERVICE JET A1 AVBL PPR 45MIN IN ADVANCE: MON-SUN DAILY 0400-0500 AND 1800- [more]

Letztes NOTAM EDVK
von 25.06.2020 1023Z bis 06.07.2020 2030Z
PAYMENTS POSS VIA CLIENT ACCOUNT, CREDIT CARD, PREPAYMENT OR VIA AEROPS (WWW.AEROPS.COM), CASH PAYMENT PPR OPS +49(0)5674 2153 309
[more]


Letztes NOTAM EDVS
von 01.07.2020 1304Z bis 30.09.2020 2359Z
CRANE APRX 244M SE OF RWY. HGT 30M AGL. DAY AND NIGHT MARKED.

          aerodata150     Radio38